Time;durP1;ratioP1;P1;durP2;ratioP2;P2;SDS_P1;SDS_P2;PMS_P1;PMS_P2;Temp;Humidity;BMP_temperature;BMP_pressure;BME280_temperature;BME280_humidity;BME280_pressure;Samples;Min_cycle;Max_cycle;Signal;HPM_P1;HPM_P2
2022/03/07 00:00:26;;;;;;;12.18;9.25;;;0.10;99.90;;;;;;5036012;28;20071;-73
2022/03/07 00:02:58;;;;;;;17.52;9.80;;;0.00;99.90;;;;;;5036346;28;20135;-73
2022/03/07 00:05:30;;;;;;;15.05;10.23;;;0.00;99.90;;;;;;5052586;28;20107;-72
2022/03/07 00:07:56;;;;;;;14.77;10.10;;;0.00;99.90;;;;;;5035864;28;20095;-72
2022/03/07 00:10:28;;;;;;;13.55;10.63;;;0.00;99.90;;;;;;5053694;28;20049;-72
2022/03/07 00:12:55;;;;;;;13.43;9.65;;;-0.10;99.90;;;;;;5052056;28;20107;-72
2022/03/07 00:15:27;;;;;;;13.43;9.85;;;-0.10;99.90;;;;;;5052572;28;20124;-72
2022/03/07 00:17:58;;;;;;;12.60;9.52;;;-0.10;99.90;;;;;;5052794;28;20129;-71
2022/03/07 00:20:31;;;;;;;12.65;10.07;;;-0.20;99.90;;;;;;5052803;28;20072;-73
2022/03/07 00:22:58;;;;;;;12.15;9.80;;;-0.20;99.90;;;;;;5052332;28;20048;-73
2022/03/07 00:25:25;;;;;;;13.13;10.48;;;-0.20;99.90;;;;;;5052708;28;20120;-72
2022/03/07 00:27:51;;;;;;;13.55;10.70;;;-0.20;99.90;;;;;;5036140;28;20041;-72
2022/03/07 00:30:23;;;;;;;13.55;10.23;;;-0.30;99.90;;;;;;5052348;28;20137;-72
2022/03/07 00:32:50;;;;;;;14.43;10.30;;;-0.30;99.90;;;;;;5052023;28;20051;-72
2022/03/07 00:35:22;;;;;;;13.45;9.98;;;-0.30;99.90;;;;;;5036601;28;20466;-73
2022/03/07 00:37:49;;;;;;;14.23;10.48;;;-0.30;99.90;;;;;;5053704;28;20107;-72
2022/03/07 00:40:21;;;;;;;14.45;10.27;;;-0.30;99.90;;;;;;5052327;28;20041;-73
2022/03/07 00:42:53;;;;;;;12.65;9.88;;;-0.30;99.90;;;;;;5035976;28;20613;-72
2022/03/07 00:45:25;;;;;;;13.80;10.07;;;-0.30;99.90;;;;;;5036339;28;20083;-72
2022/03/07 00:47:57;;;;;;;15.13;10.57;;;-0.40;99.90;;;;;;5052273;28;20147;-71
2022/03/07 00:50:29;;;;;;;13.50;10.40;;;-0.40;99.90;;;;;;5052340;28;20425;-72
2022/03/07 00:52:56;;;;;;;13.02;9.77;;;-0.40;99.90;;;;;;5035218;28;20439;-72
2022/03/07 00:55:27;;;;;;;12.27;10.45;;;-0.40;99.90;;;;;;5036176;28;20110;-72
2022/03/07 00:57:59;;;;;;;15.00;10.43;;;-0.40;99.90;;;;;;5044182;28;20049;-72
2022/03/07 01:00:26;;;;;;;13.93;10.38;;;-0.40;99.90;;;;;;5043682;28;20072;-73
2022/03/07 01:02:53;;;;;;;14.75;10.63;;;-0.40;99.90;;;;;;5067893;28;20041;-73
2022/03/07 01:05:25;;;;;;;16.05;10.13;;;-0.40;99.90;;;;;;5040831;28;20476;-72
2022/03/07 01:07:52;;;;;;;14.23;10.73;;;-0.40;99.90;;;;;;5018688;28;20389;-72
2022/03/07 01:10:24;;;;;;;13.27;10.13;;;-0.50;99.90;;;;;;5018569;28;20088;-73
2022/03/07 01:12:56;;;;;;;16.58;11.00;;;-0.50;99.90;;;;;;5016262;28;20547;-72
2022/03/07 01:15:22;;;;;;;13.60;10.43;;;-0.50;99.90;;;;;;5065502;28;20732;-71
2022/03/07 01:17:50;;;;;;;15.57;10.20;;;-0.50;99.90;;;;;;5016883;28;20451;-73
2022/03/07 01:20:22;;;;;;;15.90;11.25;;;-0.50;99.90;;;;;;5034266;28;20080;-72
2022/03/07 01:22:49;;;;;;;17.17;11.50;;;-0.60;99.90;;;;;;5032951;28;20064;-72
2022/03/07 01:25:21;;;;;;;13.95;10.70;;;-0.60;99.90;;;;;;5052333;28;20106;-72
2022/03/07 01:27:48;;;;;;;21.88;10.88;;;-0.50;99.90;;;;;;5035057;28;20041;-72
2022/03/07 01:30:19;;;;;;;16.05;11.82;;;-0.50;99.90;;;;;;5035914;28;20037;-72
2022/03/07 01:32:46;;;;;;;13.98;10.13;;;-0.60;99.90;;;;;;5034361;28;20110;-72
2022/03/07 01:35:19;;;;;;;15.15;10.55;;;-0.50;99.90;;;;;;5052543;28;20073;-72
2022/03/07 01:37:51;;;;;;;13.15;10.32;;;-0.50;99.90;;;;;;5035718;28;20041;-72
2022/03/07 01:40:22;;;;;;;14.55;10.50;;;-0.50;99.90;;;;;;5034539;28;20041;-72
2022/03/07 01:42:55;;;;;;;18.38;11.52;;;-0.50;99.90;;;;;;5051538;28;20044;-72
2022/03/07 01:45:22;;;;;;;15.10;11.05;;;-0.50;99.90;;;;;;5050789;28;20132;-72
2022/03/07 01:47:54;;;;;;;15.80;10.82;;;-0.60;99.90;;;;;;5051992;28;20057;-72
2022/03/07 01:50:21;;;;;;;16.02;11.02;;;-0.60;99.90;;;;;;5034539;28;20490;-72
2022/03/07 01:52:56;;;;;;;14.88;10.88;;;-0.60;99.90;;;;;;5051368;28;20053;-72
2022/03/07 01:55:29;;;;;;;17.52;12.05;;;-0.60;99.90;;;;;;5018695;28;20094;-72
2022/03/07 01:58:03;;;;;;;27.00;18.52;;;-0.60;99.90;;;;;;5018799;28;20161;-73
2022/03/07 02:00:30;;;;;;;17.30;12.52;;;-0.60;99.90;;;;;;5033665;28;20045;-72
2022/03/07 02:02:57;;;;;;;15.38;11.05;;;-0.60;99.90;;;;;;5033196;28;20073;-72
2022/03/07 02:05:35;;;;;;;18.45;11.43;;;-0.70;99.90;;;;;;5033489;28;20045;-72
2022/03/07 02:08:12;;;;;;;17.30;11.20;;;-0.60;99.90;;;;;;5033429;28;20052;-71
2022/03/07 02:11:00;;;;;;;16.17;10.80;;;-0.70;99.90;;;;;;5053052;28;20041;-73
2022/03/07 02:13:30;;;;;;;16.88;11.80;;;-0.70;99.90;;;;;;5032841;28;20059;-72
2022/03/07 02:16:05;;;;;;;18.23;11.73;;;-0.70;99.90;;;;;;5066658;28;20049;-73
2022/03/07 02:18:37;;;;;;;16.80;10.90;;;-0.80;99.90;;;;;;5034073;28;20492;-72
2022/03/07 02:21:18;;;;;;;18.65;12.48;;;-0.80;99.90;;;;;;5051899;28;20045;-72
2022/03/07 02:24:12;;;;;;;15.77;10.83;;;-0.80;99.90;;;;;;5035574;28;20049;-73
2022/03/07 02:27:01;;;;;;;14.85;10.77;;;-0.80;99.90;;;;;;5066351;28;20037;-72
2022/03/07 02:29:29;;;;;;;15.15;11.55;;;-0.80;99.90;;;;;;5033203;28;20439;-72
2022/03/07 02:32:00;;;;;;;16.98;12.00;;;-0.80;99.90;;;;;;5049065;28;20037;-72
2022/03/07 02:34:30;;;;;;;18.08;11.63;;;-0.80;99.90;;;;;;5032553;28;20045;-72
2022/03/07 02:37:03;;;;;;;18.65;10.63;;;-0.80;99.90;;;;;;5051071;28;20698;-72
2022/03/07 02:39:40;;;;;;;15.65;11.15;;;-0.80;99.90;;;;;;5032986;28;20053;-72
2022/03/07 02:42:14;;;;;;;17.10;11.75;;;-0.80;99.90;;;;;;5032759;28;20080;-72
2022/03/07 02:44:47;;;;;;;14.57;10.85;;;-0.70;99.90;;;;;;5017014;28;20075;-72
2022/03/07 02:47:19;;;;;;;17.85;10.38;;;-0.70;99.90;;;;;;5050290;28;20179;-71
2022/03/07 02:49:51;;;;;;;17.70;11.20;;;-0.70;99.90;;;;;;5032877;28;20140;-73
2022/03/07 02:52:23;;;;;;;17.33;11.02;;;-0.80;99.90;;;;;;5032609;28;20099;-72
2022/03/07 02:54:54;;;;;;;17.50;10.90;;;-0.80;99.90;;;;;;5032697;28;20447;-73
2022/03/07 02:57:26;;;;;;;14.73;11.13;;;-0.80;99.90;;;;;;5065963;28;20041;-72
2022/03/07 02:59:58;;;;;;;14.48;10.68;;;-0.80;99.90;;;;;;5017096;28;20500;-72
2022/03/07 03:02:30;;;;;;;15.60;10.52;;;-0.80;99.90;;;;;;5016427;28;20139;-73
2022/03/07 03:05:02;;;;;;;16.13;10.70;;;-0.80;99.90;;;;;;5048464;28;20096;-72
2022/03/07 03:07:34;;;;;;;14.95;10.10;;;-0.80;99.90;;;;;;5033658;28;20108;-72
2022/03/07 03:10:06;;;;;;;15.20;10.23;;;-0.90;99.90;;;;;;5065379;28;20037;-72
2022/03/07 03:12:33;;;;;;;15.57;10.85;;;-0.80;99.90;;;;;;5032032;28;20076;-73
2022/03/07 03:15:06;;;;;;;18.25;11.15;;;-0.80;99.90;;;;;;5016859;28;20139;-73
2022/03/07 03:17:33;;;;;;;13.43;10.02;;;-0.90;99.90;;;;;;5050375;28;20107;-72
2022/03/07 03:19:59;;;;;;;13.73;10.50;;;-0.90;99.90;;;;;;5049087;28;20045;-73
2022/03/07 03:22:32;;;;;;;16.20;10.45;;;-0.90;99.90;;;;;;5049921;28;20115;-73
2022/03/07 03:25:06;;;;;;;16.98;11.32;;;-0.90;99.90;;;;;;5016801;28;20041;-73
2022/03/07 03:27:34;;;;;;;15.63;10.80;;;-0.90;99.90;;;;;;5050290;28;20045;-73
2022/03/07 03:30:08;;;;;;;14.82;10.40;;;-0.90;99.90;;;;;;5068562;28;20495;-72
2022/03/07 03:32:40;;;;;;;18.80;10.77;;;-0.90;99.90;;;;;;5053929;28;20102;-73
2022/03/07 03:35:08;;;;;;;14.13;10.07;;;-1.00;99.90;;;;;;5036560;28;20061;-72
2022/03/07 03:37:40;;;;;;;15.45;10.30;;;-1.00;99.90;;;;;;5054298;28;20139;-72
2022/03/07 03:40:09;;;;;;;14.73;10.30;;;-1.00;99.90;;;;;;5036051;28;20068;-72
2022/03/07 03:42:41;;;;;;;13.43;9.82;;;-1.00;99.90;;;;;;5035797;28;20044;-73
2022/03/07 03:45:14;;;;;;;16.25;10.68;;;-1.10;99.90;;;;;;5051999;28;20562;-73
2022/03/07 03:47:46;;;;;;;14.63;10.32;;;-1.10;99.90;;;;;;5054045;28;20056;-72
2022/03/07 03:50:14;;;;;;;14.73;10.35;;;-1.10;99.90;;;;;;5054061;28;20064;-72
2022/03/07 03:52:46;;;;;;;16.00;11.10;;;-1.10;99.90;;;;;;5020018;28;20045;-73
2022/03/07 03:55:17;;;;;;;15.27;10.07;;;-1.10;99.90;;;;;;5053425;28;20115;-73
2022/03/07 03:57:45;;;;;;;16.55;11.10;;;-1.10;99.90;;;;;;5036189;28;20088;-73
2022/03/07 04:00:18;;;;;;;15.35;10.57;;;-1.20;99.90;;;;;;5068767;28;20033;-72
2022/03/07 04:02:50;;;;;;;17.25;10.95;;;-1.20;99.90;;;;;;5019645;28;20045;-72
2022/03/07 04:05:17;;;;;;;16.10;10.43;;;-1.10;99.90;;;;;;5019391;28;20037;-71
2022/03/07 04:07:49;;;;;;;13.80;9.95;;;-1.20;99.90;;;;;;5053704;28;20094;-72
2022/03/07 04:10:21;;;;;;;15.90;10.60;;;-1.20;99.90;;;;;;5019978;28;20111;-72
2022/03/07 04:12:48;;;;;;;18.65;12.32;;;-1.20;99.90;;;;;;5035188;28;20065;-72
2022/03/07 04:15:19;;;;;;;21.80;14.35;;;-1.20;99.90;;;;;;5053375;28;20142;-73
2022/03/07 04:17:51;;;;;;;16.40;11.73;;;-1.20;99.90;;;;;;5054094;28;20044;-72
2022/03/07 04:20:18;;;;;;;15.50;10.38;;;-1.20;99.90;;;;;;5036117;28;20048;-72
2022/03/07 04:22:50;;;;;;;13.23;9.90;;;-1.20;99.90;;;;;;5068861;28;20041;-73
2022/03/07 04:25:17;;;;;;;13.15;9.63;;;-1.20;99.90;;;;;;5069228;28;20066;-72
2022/03/07 04:27:48;;;;;;;14.88;9.88;;;-1.20;99.90;;;;;;5035922;28;20069;-72
2022/03/07 04:30:20;;;;;;;14.40;10.00;;;-1.20;99.90;;;;;;5069459;28;20151;-72
2022/03/07 04:32:52;;;;;;;16.48;9.45;;;-1.20;99.90;;;;;;5036490;28;20095;-73
2022/03/07 04:35:24;;;;;;;15.63;10.55;;;-1.20;99.90;;;;;;5035828;28;20504;-73
2022/03/07 04:37:50;;;;;;;15.23;10.15;;;-1.20;99.90;;;;;;5053213;28;20072;-72
2022/03/07 04:40:17;;;;;;;16.05;10.85;;;-1.20;99.90;;;;;;5053255;28;20696;-72
2022/03/07 04:42:45;;;;;;;14.13;10.05;;;-1.20;99.90;;;;;;5035430;28;20048;-72
2022/03/07 04:45:16;;;;;;;14.27;9.73;;;-1.30;99.90;;;;;;5053512;28;20128;-73
2022/03/07 04:47:49;;;;;;;14.13;10.02;;;-1.30;99.90;;;;;;5035639;28;20045;-72
2022/03/07 04:50:20;;;;;;;13.35;9.18;;;-1.20;99.90;;;;;;5035534;28;20043;-71
2022/03/07 04:52:47;;;;;;;13.88;10.07;;;-1.30;99.90;;;;;;5067641;28;20135;-73
2022/03/07 04:55:19;;;;;;;13.63;10.65;;;-1.30;99.90;;;;;;5052723;28;20140;-72
2022/03/07 04:57:51;;;;;;;13.77;9.80;;;-1.30;99.90;;;;;;5052220;28;20506;-72
2022/03/07 05:00:23;;;;;;;13.05;9.63;;;-1.40;99.90;;;;;;5052812;28;20115;-72
2022/03/07 05:02:54;;;;;;;13.77;9.68;;;-1.40;99.90;;;;;;5067596;28;20083;-72
2022/03/07 05:05:26;;;;;;;15.05;9.50;;;-1.40;99.90;;;;;;5019118;28;20064;-72
2022/03/07 05:07:58;;;;;;;17.17;11.05;;;-1.40;99.90;;;;;;5034644;28;20139;-73
2022/03/07 05:10:30;;;;;;;23.75;14.15;;;-1.40;99.90;;;;;;5052555;28;20064;-73
2022/03/07 05:13:02;;;;;;;22.85;13.52;;;-1.40;99.90;;;;;;5049302;28;20121;-71
2022/03/07 05:15:35;;;;;;;18.38;11.85;;;-1.40;99.90;;;;;;5050342;28;20032;-72
2022/03/07 05:18:08;;;;;;;18.05;13.10;;;-1.40;99.90;;;;;;5038149;28;20041;-73
2022/03/07 05:20:35;;;;;;;16.17;11.15;;;-1.40;99.90;;;;;;5042658;28;20040;-72
2022/03/07 05:23:07;;;;;;;16.10;10.90;;;-1.40;99.90;;;;;;5034801;28;20530;-72
2022/03/07 05:25:39;;;;;;;15.52;11.05;;;-1.40;99.90;;;;;;5041428;28;20045;-73
2022/03/07 05:28:07;;;;;;;13.82;9.88;;;-1.50;99.90;;;;;;5050017;28;20500;-72
2022/03/07 05:30:34;;;;;;;18.00;10.70;;;-1.50;99.90;;;;;;5052326;28;20043;-72
2022/03/07 05:33:01;;;;;;;16.33;9.88;;;-1.50;99.90;;;;;;5030950;28;20122;-72
2022/03/07 05:35:33;;;;;;;12.57;9.50;;;-1.50;99.90;;;;;;5048828;28;20102;-72
2022/03/07 05:38:05;;;;;;;22.13;12.93;;;-1.60;99.90;;;;;;5052289;28;20037;-73
2022/03/07 05:40:32;;;;;;;14.85;10.32;;;-1.60;99.90;;;;;;5061036;28;20128;-73
2022/03/07 05:42:58;;;;;;;15.05;9.38;;;-1.50;99.90;;;;;;5053364;28;20040;-73
2022/03/07 05:45:30;;;;;;;12.90;8.95;;;-1.50;99.90;;;;;;5039237;28;20120;-72
2022/03/07 05:48:01;;;;;;;16.67;10.02;;;-1.50;99.90;;;;;;5031223;28;20078;-72
2022/03/07 05:50:31;;;;;;;16.35;10.40;;;-1.40;99.90;;;;;;5046650;28;20044;-73
2022/03/07 05:53:03;;;;;;;13.38;9.02;;;-1.30;99.90;;;;;;5046477;28;20065;-72
2022/03/07 05:55:36;;;;;;;13.10;9.40;;;-1.30;99.90;;;;;;5016965;28;20344;-72
2022/03/07 05:58:04;;;;;;;13.10;9.10;;;-1.30;99.90;;;;;;5033628;28;20045;-72
2022/03/07 06:00:36;;;;;;;13.38;8.80;;;-1.40;99.90;;;;;;5032486;28;20045;-72
2022/03/07 06:03:08;;;;;;;13.80;9.23;;;-1.40;99.90;;;;;;5033413;28;20121;-72
2022/03/07 06:05:40;;;;;;;14.35;9.18;;;-1.40;99.90;;;;;;5062658;28;20041;-72
2022/03/07 06:08:06;;;;;;;12.43;9.13;;;-1.40;99.90;;;;;;5033545;28;20091;-72
2022/03/07 06:10:38;;;;;;;14.60;9.48;;;-1.40;99.90;;;;;;5033402;28;20037;-72
2022/03/07 06:13:05;;;;;;;12.25;8.88;;;-1.40;99.90;;;;;;5033338;28;20065;-72
2022/03/07 06:15:43;;;;;;;13.95;8.88;;;-1.50;99.90;;;;;;5065247;28;20041;-72
2022/03/07 06:18:15;;;;;;;12.90;9.55;;;-1.50;99.90;;;;;;5016852;28;20123;-72
2022/03/07 06:20:46;;;;;;;11.82;8.20;;;-1.50;99.90;;;;;;5019698;28;20110;-72
2022/03/07 06:23:19;;;;;;;13.10;8.30;;;-1.50;99.90;;;;;;5049326;28;20044;-72
2022/03/07 06:25:46;;;;;;;13.32;9.10;;;-1.40;99.90;;;;;;5050659;28;20068;-72
2022/03/07 06:28:14;;;;;;;12.23;8.70;;;-1.40;99.90;;;;;;5016319;28;20073;-72
2022/03/07 06:30:41;;;;;;;12.25;8.52;;;-1.50;99.90;;;;;;5065248;28;20056;-72
2022/03/07 06:33:14;;;;;;;13.05;8.07;;;-1.40;99.90;;;;;;5033221;28;20566;-72
2022/03/07 06:35:41;;;;;;;11.55;8.38;;;-1.50;99.90;;;;;;5050631;28;20452;-72
2022/03/07 06:38:08;;;;;;;9.48;7.60;;;-1.40;99.90;;;;;;5032736;28;20045;-72
2022/03/07 06:40:35;;;;;;;13.15;8.95;;;-1.40;99.90;;;;;;5033081;28;20037;-73
2022/03/07 06:43:07;;;;;;;13.45;8.65;;;-1.40;99.90;;;;;;5032317;28;20045;-72
2022/03/07 06:45:34;;;;;;;12.90;8.27;;;-1.40;99.90;;;;;;5016855;28;20132;-72
2022/03/07 06:48:00;;;;;;;22.05;10.85;;;-1.30;99.90;;;;;;5032570;28;20114;-72
2022/03/07 06:50:32;;;;;;;14.77;9.32;;;-1.30;99.90;;;;;;5031702;28;20576;-72
2022/03/07 06:53:04;;;;;;;14.70;8.98;;;-1.30;99.90;;;;;;5032976;28;20587;-72
2022/03/07 06:55:36;;;;;;;16.00;9.13;;;-1.30;99.90;;;;;;5033628;28;20041;-72
2022/03/07 06:58:03;;;;;;;14.27;10.00;;;-1.30;99.90;;;;;;5032741;28;20119;-72
2022/03/07 07:00:30;;;;;;;17.80;10.23;;;-1.20;99.90;;;;;;5016168;28;20135;-73
2022/03/07 07:03:02;;;;;;;11.57;8.45;;;-1.20;99.90;;;;;;5016963;28;20160;-73
2022/03/07 07:05:34;;;;;;;12.63;8.82;;;-1.20;99.90;;;;;;5042170;28;20068;-72
2022/03/07 07:08:06;;;;;;;13.38;9.63;;;-1.20;99.90;;;;;;5038854;28;20128;-72
2022/03/07 07:10:38;;;;;;;13.75;8.75;;;-1.20;99.90;;;;;;5039534;28;20123;-72
2022/03/07 07:13:04;;;;;;;12.40;8.85;;;-1.10;99.90;;;;;;5015532;28;20045;-72
2022/03/07 07:15:36;;;;;;;17.33;12.13;;;-1.10;99.90;;;;;;5016726;28;20049;-72
2022/03/07 07:18:08;;;;;;;12.15;9.57;;;-1.10;99.90;;;;;;5050838;28;20042;-72
2022/03/07 07:20:40;;;;;;;13.90;9.88;;;-1.10;99.90;;;;;;5035260;28;20067;-72
2022/03/07 07:23:11;;;;;;;15.10;9.63;;;-1.10;99.90;;;;;;5032352;28;20132;-72
2022/03/07 07:25:38;;;;;;;15.52;10.57;;;-1.10;99.90;;;;;;5034481;28;20045;-72
2022/03/07 07:28:05;;;;;;;33.22;16.15;;;-1.00;99.90;;;;;;5023828;28;20511;-72
2022/03/07 07:30:32;;;;;;;12.60;8.82;;;-1.00;99.90;;;;;;5059031;28;20106;-73
2022/03/07 07:33:04;;;;;;;11.88;8.38;;;-0.90;99.90;;;;;;5071093;28;20068;-72
2022/03/07 07:35:33;;;;;;;15.95;10.88;;;-0.90;99.90;;;;;;5018571;28;20436;-72
2022/03/07 07:38:01;;;;;;;13.70;9.60;;;-0.90;99.90;;;;;;5049162;28;20072;-72
2022/03/07 07:40:32;;;;;;;16.33;9.95;;;-0.90;99.90;;;;;;5032667;28;20067;-73
2022/03/07 07:43:04;;;;;;;12.75;9.40;;;-0.80;99.90;;;;;;5036907;28;20051;-72
2022/03/07 07:45:31;;;;;;;16.50;10.40;;;-0.80;99.90;;;;;;5056960;28;20087;-72
2022/03/07 07:47:59;;;;;;;16.55;10.20;;;-0.70;99.90;;;;;;5041125;28;20183;-72
2022/03/07 07:50:32;;;;;;;29.10;15.23;;;-0.70;99.90;;;;;;5031829;28;20623;-72
2022/03/07 07:52:59;;;;;;;17.00;10.52;;;-0.70;99.90;;;;;;5031500;28;20116;-72
2022/03/07 07:55:31;;;;;;;15.13;9.93;;;-0.60;99.90;;;;;;5032740;28;20098;-72
2022/03/07 07:57:58;;;;;;;13.10;8.60;;;-0.50;99.90;;;;;;5031863;28;20120;-72
2022/03/07 08:00:25;;;;;;;13.40;8.90;;;-0.50;99.90;;;;;;5051921;28;20556;-73
2022/03/07 08:02:52;;;;;;;18.23;8.98;;;-0.40;99.90;;;;;;5051059;28;20087;-73
2022/03/07 08:05:19;;;;;;;14.60;9.57;;;-0.30;99.90;;;;;;5049947;28;20078;-72
2022/03/07 08:07:51;;;;;;;13.20;9.32;;;-0.30;99.90;;;;;;5020621;28;20468;-73
2022/03/07 08:10:23;;;;;;;16.38;9.75;;;-0.20;99.90;;;;;;5032186;28;20424;-73
2022/03/07 08:12:55;;;;;;;13.82;9.88;;;-0.20;99.90;;;;;;5032158;28;20128;-73
2022/03/07 08:15:29;;;;;;;12.88;8.57;;;-0.10;99.90;;;;;;5050252;28;20115;-72
2022/03/07 08:18:01;;;;;;;16.58;9.07;;;0.00;99.90;;;;;;5038490;28;20055;-72
2022/03/07 08:20:28;;;;;;;16.67;10.30;;;0.00;99.90;;;;;;5036799;28;20139;-72
2022/03/07 08:23:00;;;;;;;12.55;8.75;;;0.10;99.90;;;;;;5053983;28;20069;-73
2022/03/07 08:25:32;;;;;;;13.18;8.82;;;0.20;99.90;;;;;;5036789;28;20068;-72
2022/03/07 08:28:00;;;;;;;15.48;10.05;;;0.20;99.90;;;;;;5055613;28;20068;-72
2022/03/07 08:30:33;;;;;;;14.88;9.40;;;0.30;99.90;;;;;;5043235;28;20554;-72
2022/03/07 08:33:00;;;;;;;14.35;9.60;;;0.30;99.90;;;;;;5036924;28;20135;-72
2022/03/07 08:35:32;;;;;;;15.30;10.77;;;0.30;99.90;;;;;;5057502;28;20124;-72
2022/03/07 08:37:59;;;;;;;16.10;10.45;;;0.40;99.90;;;;;;5035807;28;20041;-72
2022/03/07 08:40:31;;;;;;;16.63;10.55;;;0.40;99.90;;;;;;5043413;28;20059;-71
2022/03/07 08:43:03;;;;;;;15.32;10.20;;;0.40;99.90;;;;;;5064909;28;20048;-71
2022/03/07 08:45:35;;;;;;;15.60;10.45;;;0.40;99.90;;;;;;5050635;28;20124;-72
2022/03/07 08:48:06;;;;;;;17.05;11.38;;;0.50;99.90;;;;;;5040231;28;20130;-72
2022/03/07 08:50:38;;;;;;;19.10;11.73;;;0.50;99.90;;;;;;5017571;28;20136;-71
2022/03/07 08:53:10;;;;;;;16.35;10.50;;;0.60;99.90;;;;;;5035746;28;20064;-72
2022/03/07 08:55:42;;;;;;;17.48;11.40;;;0.60;99.90;;;;;;5041449;28;20527;-71
2022/03/07 08:58:14;;;;;;;16.27;11.43;;;0.60;99.90;;;;;;5044800;28;20049;-72
2022/03/07 09:00:45;;;;;;;18.38;11.60;;;0.70;99.90;;;;;;5031736;28;20475;-72
2022/03/07 09:03:17;;;;;;;15.95;10.00;;;0.70;99.90;;;;;;5035480;28;20052;-72
2022/03/07 09:05:49;;;;;;;17.70;10.82;;;0.80;99.90;;;;;;5055891;28;20610;-72
2022/03/07 09:08:16;;;;;;;18.15;12.68;;;0.90;99.90;;;;;;5039924;28;20061;-72
2022/03/07 09:10:48;;;;;;;18.10;12.45;;;0.90;99.90;;;;;;5037018;28;20047;-71
2022/03/07 09:13:15;;;;;;;16.35;12.45;;;1.00;99.90;;;;;;5039431;28;20056;-72
2022/03/07 09:15:48;;;;;;;19.77;13.10;;;1.00;99.90;;;;;;5051165;28;20124;-72
2022/03/07 09:18:15;;;;;;;16.17;12.13;;;1.20;99.90;;;;;;5055430;28;20092;-72
2022/03/07 09:20:42;;;;;;;15.30;10.95;;;1.20;99.90;;;;;;5031130;28;20043;-72
2022/03/07 09:23:14;;;;;;;19.65;12.65;;;1.30;99.90;;;;;;5035662;28;20098;-72
2022/03/07 09:25:41;;;;;;;16.75;11.52;;;1.40;99.90;;;;;;5034622;28;20116;-72
2022/03/07 09:28:13;;;;;;;20.58;12.20;;;1.50;99.90;;;;;;5039982;28;20045;-72
2022/03/07 09:30:44;;;;;;;18.67;12.45;;;1.60;99.90;;;;;;5038662;28;20061;-72
2022/03/07 09:33:11;;;;;;;29.45;12.85;;;1.70;99.90;;;;;;5066904;28;20136;-72
2022/03/07 09:35:43;;;;;;;18.38;12.18;;;1.70;99.90;;;;;;5043173;28;20127;-72
2022/03/07 09:38:15;;;;;;;17.50;12.20;;;1.70;99.90;;;;;;5038775;28;20119;-72
2022/03/07 09:40:47;;;;;;;16.08;11.63;;;1.70;99.90;;;;;;5043491;28;20140;-73
2022/03/07 09:43:14;;;;;;;19.85;11.93;;;1.80;99.90;;;;;;5025344;28;20041;-72
2022/03/07 09:45:41;;;;;;;19.17;13.35;;;1.80;99.90;;;;;;5027224;28;20067;-72
2022/03/07 09:48:14;;;;;;;18.92;12.60;;;1.80;99.90;;;;;;5037070;28;20067;-72
2022/03/07 09:50:45;;;;;;;17.17;12.00;;;1.90;99.90;;;;;;5019774;28;20041;-72
2022/03/07 09:53:13;;;;;;;20.88;13.45;;;2.00;99.90;;;;;;5049551;28;20091;-72
2022/03/07 09:55:46;;;;;;;21.58;13.93;;;2.00;99.90;;;;;;5051345;28;20063;-72
2022/03/07 09:58:18;;;;;;;25.70;14.00;;;2.00;99.90;;;;;;5039643;28;20128;-72
2022/03/07 10:00:50;;;;;;;21.40;14.25;;;2.00;99.90;;;;;;5029735;28;20283;-71
2022/03/07 10:03:21;;;;;;;19.42;13.68;;;2.00;99.90;;;;;;5037395;28;20037;-72
2022/03/07 10:05:53;;;;;;;20.67;14.40;;;2.10;99.90;;;;;;5051233;28;20029;-72
2022/03/07 10:08:28;;;;;;;22.17;15.05;;;2.10;99.90;;;;;;5051033;28;20178;-72
2022/03/07 10:11:08;;;;;;;23.02;13.55;;;2.20;99.90;;;;;;5045663;28;20132;-72
2022/03/07 10:13:35;;;;;;;18.15;13.57;;;2.30;99.90;;;;;;5016713;28;20037;-72
2022/03/07 10:16:05;;;;;;;20.75;13.27;;;2.50;99.90;;;;;;5052285;28;20072;-72
2022/03/07 10:18:51;;;;;;;19.70;13.90;;;2.60;99.90;;;;;;5034915;28;20128;-72
2022/03/07 10:21:25;;;;;;;18.40;13.52;;;2.70;99.90;;;;;;5033624;28;20079;-72
2022/03/07 10:23:54;;;;;;;19.85;14.45;;;2.70;99.90;;;;;;5035310;28;20120;-72
2022/03/07 10:26:21;;;;;;;21.75;15.15;;;2.60;99.90;;;;;;5038702;28;20095;-72
2022/03/07 10:28:56;;;;;;;23.85;14.50;;;2.50;99.90;;;;;;5051251;28;20551;-72
2022/03/07 10:31:29;;;;;;;21.13;14.68;;;2.50;99.70;;;;;;5021640;28;20057;-72
2022/03/07 10:34:11;;;;;;;21.75;15.07;;;2.50;99.90;;;;;;5036593;28;20131;-72
2022/03/07 10:36:45;;;;;;;20.05;14.07;;;2.60;99.90;;;;;;5048781;28;20113;-72
2022/03/07 10:39:24;;;;;;;;;;;2.70;99.90;;;;;;5063090;28;20033;-72
2022/03/07 10:41:56;;;;;;;21.73;13.55;;;2.70;99.90;;;;;;5054894;28;19920;-71
2022/03/07 10:44:34;;;;;;;23.13;15.25;;;2.70;99.90;;;;;;5040116;28;20127;-72
2022/03/07 10:47:18;;;;;;;21.35;14.20;;;2.60;99.70;;;;;;5021953;28;20504;-71
2022/03/07 10:49:56;;;;;;;19.98;13.65;;;2.70;99.10;;;;;;5051383;28;20045;-72
2022/03/07 10:52:39;;;;;;;20.95;13.73;;;2.90;99.90;;;;;;5044438;28;20480;-72
2022/03/07 10:55:12;;;;;;;20.85;14.73;;;3.10;98.20;;;;;;5035424;28;20396;-72
2022/03/07 10:57:44;;;;;;;20.17;14.25;;;3.10;97.50;;;;;;5064196;28;20446;-72
2022/03/07 11:00:18;;;;;;;23.52;14.80;;;3.10;97.30;;;;;;5068443;28;20131;-72
2022/03/07 11:02:50;;;;;;;;;;;3.20;97.10;;;;;;5038676;28;20068;-71
2022/03/07 11:05:22;;;;;;;20.73;14.32;;;3.00;96.80;;;;;;5078693;28;19920;-72
2022/03/07 11:07:54;;;;;;;23.02;14.68;;;2.90;97.40;;;;;;5069167;28;20730;-72
2022/03/07 11:10:25;;;;;;;23.73;15.68;;;2.90;97.00;;;;;;5049107;28;20061;-71
2022/03/07 11:12:58;;;;;;;22.08;15.80;;;2.90;96.40;;;;;;5046078;28;20116;-72
2022/03/07 11:15:25;;;;;;;21.58;15.95;;;2.80;96.80;;;;;;5047180;28;20033;-73
2022/03/07 11:17:58;;;;;;;24.15;15.23;;;2.80;97.60;;;;;;5033505;28;20072;-73
2022/03/07 11:20:30;;;;;;;20.98;14.50;;;2.70;97.00;;;;;;5029424;28;20076;-72
2022/03/07 11:23:02;;;;;;;21.63;15.18;;;2.70;97.00;;;;;;5034606;28;20194;-72
2022/03/07 11:25:36;;;;;;;23.73;15.15;;;2.70;97.60;;;;;;5030976;28;20051;-73
2022/03/07 11:28:04;;;;;;;22.15;15.50;;;2.70;97.00;;;;;;5021259;28;20045;-73
2022/03/07 11:30:41;;;;;;;22.90;15.02;;;2.60;97.10;;;;;;5047918;28;20037;-73
2022/03/07 11:33:19;;;;;;;21.98;16.10;;;2.60;97.20;;;;;;5029895;28;20129;-73
2022/03/07 11:35:53;;;;;;;23.65;14.73;;;2.50;97.20;;;;;;5047569;28;20124;-72
2022/03/07 11:38:35;;;;;;;22.17;15.07;;;2.50;96.80;;;;;;5032663;28;20576;-72
2022/03/07 11:41:12;;;;;;;24.73;16.77;;;2.50;97.20;;;;;;5013941;28;20128;-73
2022/03/07 11:44:00;;;;;;;26.42;16.20;;;2.50;97.10;;;;;;5018293;28;20069;-72
2022/03/07 11:46:38;;;;;;;24.70;15.18;;;2.50;97.80;;;;;;5034045;28;20029;-73
2022/03/07 11:49:07;;;;;;;23.00;16.17;;;2.50;97.20;;;;;;5026646;28;20475;-72
2022/03/07 11:51:41;;;;;;;22.60;16.25;;;2.50;97.10;;;;;;5047959;28;20549;-72
2022/03/07 11:54:23;;;;;;;20.90;15.23;;;2.40;96.70;;;;;;5038829;28;20526;-73
2022/03/07 11:56:50;;;;;;;25.40;16.63;;;2.50;96.20;;;;;;5054107;28;20127;-72
2022/03/07 11:59:29;;;;;;;22.08;16.27;;;2.40;96.00;;;;;;5053221;28;20575;-72
2022/03/07 12:02:02;;;;;;;24.70;17.05;;;2.40;96.00;;;;;;5042850;28;20045;-73
2022/03/07 12:04:43;;;;;;;26.90;17.52;;;2.30;96.10;;;;;;5053184;28;20045;-72
2022/03/07 12:07:25;;;;;;;24.92;16.52;;;2.30;96.50;;;;;;5036564;28;20041;-72
2022/03/07 12:10:03;;;;;;;22.95;15.82;;;2.30;96.90;;;;;;5035622;28;20045;-72
2022/03/07 12:12:35;;;;;;;23.27;15.70;;;2.30;97.10;;;;;;5034794;28;20041;-72
2022/03/07 12:15:09;;;;;;;23.73;15.82;;;2.30;96.80;;;;;;5019806;28;20087;-72
2022/03/07 12:17:36;;;;;;;27.85;17.88;;;2.40;96.80;;;;;;5032073;28;20087;-73
2022/03/07 12:20:09;;;;;;;25.30;18.20;;;2.40;96.20;;;;;;5039348;28;20066;-73
2022/03/07 12:22:35;;;;;;;22.90;16.52;;;2.40;96.10;;;;;;5051210;28;20072;-73
2022/03/07 12:25:08;;;;;;;23.25;16.77;;;2.40;95.90;;;;;;5035292;28;20515;-72
2022/03/07 12:27:39;;;;;;;25.98;16.40;;;2.50;96.60;;;;;;5035215;28;20083;-72
2022/03/07 12:30:11;;;;;;;23.05;16.60;;;2.50;95.90;;;;;;5021155;28;20486;-72
2022/03/07 12:32:44;;;;;;;24.23;16.17;;;2.50;95.80;;;;;;5034509;28;20071;-72
2022/03/07 12:35:19;;;;;;;25.08;17.30;;;2.60;96.10;;;;;;5051684;28;20045;-73
2022/03/07 12:37:46;;;;;;;23.73;16.58;;;2.60;96.10;;;;;;5044317;28;20596;-72
2022/03/07 12:40:18;;;;;;;25.63;16.52;;;2.70;96.00;;;;;;5037505;28;20075;-73
2022/03/07 12:42:50;;;;;;;21.80;15.40;;;2.70;96.00;;;;;;5023660;28;20389;-72
2022/03/07 12:45:21;;;;;;;24.88;17.20;;;2.70;96.40;;;;;;5035336;28;20124;-72
2022/03/07 12:47:53;;;;;;;26.65;18.02;;;2.60;96.50;;;;;;5034058;28;20564;-72
2022/03/07 12:50:28;;;;;;;23.35;16.88;;;2.60;96.00;;;;;;5019349;28;20740;-72
2022/03/07 12:52:55;;;;;;;24.50;17.15;;;2.70;96.00;;;;;;5034230;28;20095;-73